Terminal Aerodrome Forecast
Issued by NWS Louisville, KY

Home | Current Version | Previous Version | Text Only | Print | Product List | Glossary On
Versions: 1 2 3 4 5 6 7 8 9 10 11 12
000
FTUS43 KLMK 290520
TAFSDF
TAF
KSDF 290520Z 2906/3012 18005KT P6SM FEW110 BKN250
     FM290800 VRB03KT P6SM OVC250 WS020/21037KT
     FM291200 20012G20KT P6SM SCT060
     FM300100 18006KT P6SM SKC=

USA.gov is the U.S. government's official web portal to all federal, state and local government web resources and services.